sensor_id;sensor_type;location;lat;lon;timestamp;pressure;altitude;pressure_sealevel;temperature;humidity
75208;BME280;63795;55.684;37.864;2023-07-16T00:01:38;99576.75;;;16.15;75.99
75208;BME280;63795;55.684;37.864;2023-07-16T00:06:39;99586.22;;;16.12;76.24
75208;BME280;63795;55.684;37.864;2023-07-16T00:11:39;99577.75;;;16.08;76.65
75208;BME280;63795;55.684;37.864;2023-07-16T00:16:40;99579.56;;;16.02;76.55
75208;BME280;63795;55.684;37.864;2023-07-16T00:21:41;99580.44;;;15.99;76.87
75208;BME280;63795;55.684;37.864;2023-07-16T00:26:41;99568.41;;;15.92;76.83
75208;BME280;63795;55.684;37.864;2023-07-16T00:31:42;99579.03;;;15.91;77.16
75208;BME280;63795;55.684;37.864;2023-07-16T00:36:42;99579.84;;;15.92;77.04
75208;BME280;63795;55.684;37.864;2023-07-16T00:41:43;99588.97;;;15.87;77.72
75208;BME280;63795;55.684;37.864;2023-07-16T00:46:43;99593.53;;;15.84;77.77
75208;BME280;63795;55.684;37.864;2023-07-16T00:51:44;99587.09;;;15.80;78.15
75208;BME280;63795;55.684;37.864;2023-07-16T00:56:45;99596.13;;;15.79;78.31
75208;BME280;63795;55.684;37.864;2023-07-16T01:01:45;99595.84;;;15.73;78.32
75208;BME280;63795;55.684;37.864;2023-07-16T01:06:52;99621.03;;;15.78;78.27
75208;BME280;63795;55.684;37.864;2023-07-16T01:11:54;99608.44;;;15.76;78.28
75208;BME280;63795;55.684;37.864;2023-07-16T01:16:55;99618.72;;;15.73;78.23
75208;BME280;63795;55.684;37.864;2023-07-16T01:33:01;99625.13;;;15.77;78.49
75208;BME280;63795;55.684;37.864;2023-07-16T01:38:04;99619.78;;;15.79;78.41
75208;BME280;63795;55.684;37.864;2023-07-16T01:43:04;99624.00;;;15.75;78.86
75208;BME280;63795;55.684;37.864;2023-07-16T01:53:26;99634.28;;;15.72;79.16
75208;BME280;63795;55.684;37.864;2023-07-16T01:58:27;99643.09;;;15.78;79.15
75208;BME280;63795;55.684;37.864;2023-07-16T02:03:27;99643.91;;;15.78;78.97
75208;BME280;63795;55.684;37.864;2023-07-16T02:08:27;99642.28;;;15.77;78.88
75208;BME280;63795;55.684;37.864;2023-07-16T02:13:28;99634.06;;;15.79;78.71
75208;BME280;63795;55.684;37.864;2023-07-16T02:18:28;99644.72;;;15.79;79.20
75208;BME280;63795;55.684;37.864;2023-07-16T02:23:29;99646.78;;;15.78;78.98
75208;BME280;63795;55.684;37.864;2023-07-16T02:28:29;99645.50;;;15.79;79.03
75208;BME280;63795;55.684;37.864;2023-07-16T02:33:30;99652.13;;;15.76;79.20
75208;BME280;63795;55.684;37.864;2023-07-16T02:38:30;99651.22;;;15.79;78.99
75208;BME280;63795;55.684;37.864;2023-07-16T02:43:31;99656.50;;;15.81;78.93
75208;BME280;63795;55.684;37.864;2023-07-16T02:48:31;99660.97;;;15.82;79.02
75208;BME280;63795;55.684;37.864;2023-07-16T02:53:31;99656.94;;;15.79;78.99
75208;BME280;63795;55.684;37.864;2023-07-16T02:58:32;99655.81;;;15.77;79.24
75208;BME280;63795;55.684;37.864;2023-07-16T03:03:32;99666.22;;;15.83;78.67
75208;BME280;63795;55.684;37.864;2023-07-16T03:08:34;99666.88;;;15.91;78.32
75208;BME280;63795;55.684;37.864;2023-07-16T03:13:34;99666.56;;;16.01;78.93
75208;BME280;63795;55.684;37.864;2023-07-16T03:18:35;99660.84;;;16.01;79.09
75208;BME280;63795;55.684;37.864;2023-07-16T03:23:35;99666.94;;;16.03;78.93
75208;BME280;63795;55.684;37.864;2023-07-16T03:28:36;99675.78;;;16.09;79.06
75208;BME280;63795;55.684;37.864;2023-07-16T03:33:36;99674.34;;;16.17;78.70
75208;BME280;63795;55.684;37.864;2023-07-16T03:38:37;99672.91;;;16.25;78.53
75208;BME280;63795;55.684;37.864;2023-07-16T03:43:38;99677.63;;;16.32;78.07
75208;BME280;63795;55.684;37.864;2023-07-16T03:48:39;99681.63;;;16.34;78.40
75208;BME280;63795;55.684;37.864;2023-07-16T03:53:39;99687.25;;;16.38;78.28
75208;BME280;63795;55.684;37.864;2023-07-16T03:58:40;99688.88;;;16.39;78.27
75208;BME280;63795;55.684;37.864;2023-07-16T04:03:40;99696.28;;;16.52;78.22
75208;BME280;63795;55.684;37.864;2023-07-16T04:08:40;99700.66;;;16.57;78.17
75208;BME280;63795;55.684;37.864;2023-07-16T04:13:41;99703.06;;;16.58;77.94
75208;BME280;63795;55.684;37.864;2023-07-16T04:18:41;99698.97;;;16.59;78.08
75208;BME280;63795;55.684;37.864;2023-07-16T04:23:42;99699.31;;;16.61;78.00
75208;BME280;63795;55.684;37.864;2023-07-16T04:28:42;99700.44;;;16.64;78.03
75208;BME280;63795;55.684;37.864;2023-07-16T04:33:48;99690.63;;;16.65;77.97
75208;BME280;63795;55.684;37.864;2023-07-16T04:38:49;99696.88;;;16.60;78.33
75208;BME280;63795;55.684;37.864;2023-07-16T04:43:49;99690.38;;;16.59;77.99
75208;BME280;63795;55.684;37.864;2023-07-16T04:48:50;99702.25;;;16.58;78.11
75208;BME280;63795;55.684;37.864;2023-07-16T04:53:51;99703.13;;;16.71;77.89
75208;BME280;63795;55.684;37.864;2023-07-16T04:58:51;99709.59;;;16.87;77.56
75208;BME280;63795;55.684;37.864;2023-07-16T05:03:52;99707.41;;;16.91;77.27
75208;BME280;63795;55.684;37.864;2023-07-16T05:08:52;99702.66;;;17.01;77.18
75208;BME280;63795;55.684;37.864;2023-07-16T05:13:53;99695.78;;;16.98;76.74
75208;BME280;63795;55.684;37.864;2023-07-16T05:18:53;99700.63;;;17.14;76.62
75208;BME280;63795;55.684;37.864;2023-07-16T05:23:54;99699.13;;;17.22;76.25
75208;BME280;63795;55.684;37.864;2023-07-16T05:28:54;99711.28;;;17.26;76.22
75208;BME280;63795;55.684;37.864;2023-07-16T05:33:55;99703.50;;;17.27;76.27
75208;BME280;63795;55.684;37.864;2023-07-16T05:38:55;99708.44;;;17.26;76.12
75208;BME280;63795;55.684;37.864;2023-07-16T05:43:56;99708.34;;;17.42;76.25
75208;BME280;63795;55.684;37.864;2023-07-16T05:48:56;99711.03;;;17.49;75.64
75208;BME280;63795;55.684;37.864;2023-07-16T05:53:57;99707.09;;;17.43;75.26
75208;BME280;63795;55.684;37.864;2023-07-16T05:58:57;99697.91;;;17.48;75.21
75208;BME280;63795;55.684;37.864;2023-07-16T06:03:58;99706.91;;;17.63;74.93
75208;BME280;63795;55.684;37.864;2023-07-16T06:08:58;99715.16;;;17.73;75.25
75208;BME280;63795;55.684;37.864;2023-07-16T06:13:59;99707.94;;;17.81;74.32
75208;BME280;63795;55.684;37.864;2023-07-16T06:18:59;99708.59;;;17.98;73.81
75208;BME280;63795;55.684;37.864;2023-07-16T06:24:00;99700.53;;;18.18;73.21
75208;BME280;63795;55.684;37.864;2023-07-16T06:29:01;99712.84;;;18.40;73.17
75208;BME280;63795;55.684;37.864;2023-07-16T06:34:01;99711.75;;;18.72;71.64
75208;BME280;63795;55.684;37.864;2023-07-16T06:39:02;99722.31;;;18.97;70.64
75208;BME280;63795;55.684;37.864;2023-07-16T06:44:04;99735.34;;;19.32;70.69
75208;BME280;63795;55.684;37.864;2023-07-16T06:49:05;99733.47;;;19.60;68.40
75208;BME280;63795;55.684;37.864;2023-07-16T06:54:07;99734.56;;;20.23;67.25
75208;BME280;63795;55.684;37.864;2023-07-16T06:59:08;99736.06;;;20.64;65.05
75208;BME280;63795;55.684;37.864;2023-07-16T07:04:08;99740.84;;;20.49;65.71
75208;BME280;63795;55.684;37.864;2023-07-16T07:09:09;99736.06;;;20.82;64.26
75208;BME280;63795;55.684;37.864;2023-07-16T07:14:09;99736.25;;;20.70;63.98
75208;BME280;63795;55.684;37.864;2023-07-16T07:19:09;99742.06;;;20.21;65.21
75208;BME280;63795;55.684;37.864;2023-07-16T07:24:10;99741.13;;;19.93;66.09
75208;BME280;63795;55.684;37.864;2023-07-16T07:29:10;99750.63;;;19.72;66.20
75208;BME280;63795;55.684;37.864;2023-07-16T07:34:11;99746.78;;;19.44;66.50
75208;BME280;63795;55.684;37.864;2023-07-16T07:39:11;99739.00;;;19.54;66.76
75208;BME280;63795;55.684;37.864;2023-07-16T07:44:13;99738.88;;;19.58;65.90
75208;BME280;63795;55.684;37.864;2023-07-16T07:49:14;99746.81;;;20.15;64.09
75208;BME280;63795;55.684;37.864;2023-07-16T07:54:14;99740.63;;;20.25;63.45
75208;BME280;63795;55.684;37.864;2023-07-16T07:59:15;99750.50;;;19.76;64.73
75208;BME280;63795;55.684;37.864;2023-07-16T08:04:15;99742.69;;;19.55;66.03
75208;BME280;63795;55.684;37.864;2023-07-16T08:09:16;99743.31;;;19.49;66.27
75208;BME280;63795;55.684;37.864;2023-07-16T08:14:17;99755.19;;;19.61;66.75
75208;BME280;63795;55.684;37.864;2023-07-16T08:19:18;99747.41;;;20.01;66.07
75208;BME280;63795;55.684;37.864;2023-07-16T08:24:18;99727.41;;;19.97;64.07
75208;BME280;63795;55.684;37.864;2023-07-16T08:29:18;99749.09;;;20.20;63.83
75208;BME280;63795;55.684;37.864;2023-07-16T08:34:19;99747.91;;;20.75;63.80
75208;BME280;63795;55.684;37.864;2023-07-16T08:39:20;99731.41;;;21.39;61.68
75208;BME280;63795;55.684;37.864;2023-07-16T08:44:20;99734.56;;;21.68;61.27
75208;BME280;63795;55.684;37.864;2023-07-16T08:49:22;99737.22;;;21.30;59.95
75208;BME280;63795;55.684;37.864;2023-07-16T08:54:23;99735.63;;;21.80;58.40
75208;BME280;63795;55.684;37.864;2023-07-16T08:59:26;99735.81;;;22.18;58.43
75208;BME280;63795;55.684;37.864;2023-07-16T09:04:27;99735.34;;;22.43;59.02
75208;BME280;63795;55.684;37.864;2023-07-16T09:09:30;99738.66;;;22.98;57.07
75208;BME280;63795;55.684;37.864;2023-07-16T09:14:30;99726.19;;;23.45;54.63
75208;BME280;63795;55.684;37.864;2023-07-16T09:19:34;99741.56;;;23.51;52.93
75208;BME280;63795;55.684;37.864;2023-07-16T09:24:35;99729.59;;;23.73;53.26
75208;BME280;63795;55.684;37.864;2023-07-16T09:29:38;99735.09;;;23.56;52.16
75208;BME280;63795;55.684;37.864;2023-07-16T09:34:38;99729.78;;;23.40;53.71
75208;BME280;63795;55.684;37.864;2023-07-16T09:39:39;99741.09;;;23.29;53.94
75208;BME280;63795;55.684;37.864;2023-07-16T09:44:40;99732.00;;;22.68;53.90
75208;BME280;63795;55.684;37.864;2023-07-16T09:49:42;99735.50;;;23.11;52.93
75208;BME280;63795;55.684;37.864;2023-07-16T09:54:45;99735.75;;;23.95;52.45
75208;BME280;63795;55.684;37.864;2023-07-16T09:59:50;99752.00;;;24.56;52.68
75208;BME280;63795;55.684;37.864;2023-07-16T10:04:54;99748.09;;;24.39;50.08
75208;BME280;63795;55.684;37.864;2023-07-16T10:09:58;99751.53;;;24.23;51.56
75208;BME280;63795;55.684;37.864;2023-07-16T10:14:58;99742.47;;;24.35;48.59
75208;BME280;63795;55.684;37.864;2023-07-16T10:20:06;99729.63;;;24.57;48.19
75208;BME280;63795;55.684;37.864;2023-07-16T10:30:20;99741.72;;;25.15;49.54
75208;BME280;63795;55.684;37.864;2023-07-16T10:35:21;99723.94;;;25.48;47.59
75208;BME280;63795;55.684;37.864;2023-07-16T10:40:22;99734.44;;;24.80;46.37
75208;BME280;63795;55.684;37.864;2023-07-16T10:45:22;99742.03;;;24.22;47.75
75208;BME280;63795;55.684;37.864;2023-07-16T10:50:23;99757.09;;;24.26;48.52
75208;BME280;63795;55.684;37.864;2023-07-16T10:55:26;99750.13;;;23.89;48.85
75208;BME280;63795;55.684;37.864;2023-07-16T11:00:27;99749.34;;;23.89;49.48
75208;BME280;63795;55.684;37.864;2023-07-16T11:05:28;99745.66;;;24.37;47.97
75208;BME280;63795;55.684;37.864;2023-07-16T11:10:29;99750.00;;;24.62;47.88
75208;BME280;63795;55.684;37.864;2023-07-16T11:15:32;99743.16;;;24.65;48.33
75208;BME280;63795;55.684;37.864;2023-07-16T11:20:33;99743.25;;;24.51;48.07
75208;BME280;63795;55.684;37.864;2023-07-16T11:25:33;99750.81;;;24.13;48.44
75208;BME280;63795;55.684;37.864;2023-07-16T11:30:34;99749.53;;;24.00;48.85
75208;BME280;63795;55.684;37.864;2023-07-16T11:35:34;99752.13;;;24.82;48.63
75208;BME280;63795;55.684;37.864;2023-07-16T11:40:36;99744.47;;;26.27;46.33
75208;BME280;63795;55.684;37.864;2023-07-16T11:45:37;99746.44;;;26.83;47.30
75208;BME280;63795;55.684;37.864;2023-07-16T11:50:37;99739.53;;;27.56;44.97
75208;BME280;63795;55.684;37.864;2023-07-16T11:55:38;99748.50;;;27.36;45.02
75208;BME280;63795;55.684;37.864;2023-07-16T12:00:38;99747.16;;;26.73;41.77
75208;BME280;63795;55.684;37.864;2023-07-16T12:05:39;99739.00;;;26.82;41.84
75208;BME280;63795;55.684;37.864;2023-07-16T12:10:40;99736.59;;;27.34;41.23
75208;BME280;63795;55.684;37.864;2023-07-16T12:15:41;99730.53;;;27.43;39.34
75208;BME280;63795;55.684;37.864;2023-07-16T12:20:42;99732.66;;;26.42;40.82
75208;BME280;63795;55.684;37.864;2023-07-16T12:25:43;99728.09;;;25.67;42.07
75208;BME280;63795;55.684;37.864;2023-07-16T12:30:43;99719.75;;;26.11;41.12
75208;BME280;63795;55.684;37.864;2023-07-16T12:35:44;99714.34;;;27.37;42.85
75208;BME280;63795;55.684;37.864;2023-07-16T12:40:45;99718.13;;;28.20;40.64
75208;BME280;63795;55.684;37.864;2023-07-16T12:45:45;99725.47;;;27.44;40.30
75208;BME280;63795;55.684;37.864;2023-07-16T12:50:46;99717.97;;;26.62;40.73
75208;BME280;63795;55.684;37.864;2023-07-16T12:55:46;99713.66;;;26.09;40.66
75208;BME280;63795;55.684;37.864;2023-07-16T13:00:46;99713.72;;;25.58;41.56
75208;BME280;63795;55.684;37.864;2023-07-16T13:05:47;99720.88;;;24.91;42.11
75208;BME280;63795;55.684;37.864;2023-07-16T13:10:48;99714.56;;;25.39;40.97
75208;BME280;63795;55.684;37.864;2023-07-16T13:15:48;99717.16;;;25.88;41.82
75208;BME280;63795;55.684;37.864;2023-07-16T13:20:49;99723.88;;;26.31;39.04
75208;BME280;63795;55.684;37.864;2023-07-16T13:25:49;99718.91;;;26.84;38.43
75208;BME280;63795;55.684;37.864;2023-07-16T13:30:53;99719.88;;;26.70;38.65
75208;BME280;63795;55.684;37.864;2023-07-16T13:35:54;99709.84;;;25.98;39.36
75208;BME280;63795;55.684;37.864;2023-07-16T13:40:54;99707.25;;;26.37;39.87
75208;BME280;63795;55.684;37.864;2023-07-16T13:45:55;99712.44;;;26.64;39.18
75208;BME280;63795;55.684;37.864;2023-07-16T13:50:55;99713.88;;;26.37;40.61
75208;BME280;63795;55.684;37.864;2023-07-16T13:55:56;99721.56;;;25.78;40.80
75208;BME280;63795;55.684;37.864;2023-07-16T14:00:56;99715.91;;;25.63;41.92
75208;BME280;63795;55.684;37.864;2023-07-16T14:05:57;99715.97;;;25.43;42.59
75208;BME280;63795;55.684;37.864;2023-07-16T14:10:57;99725.75;;;25.46;42.40
75208;BME280;63795;55.684;37.864;2023-07-16T14:15:57;99730.88;;;25.56;42.80
75208;BME280;63795;55.684;37.864;2023-07-16T14:20:58;99717.28;;;25.22;42.72
75208;BME280;63795;55.684;37.864;2023-07-16T14:26:00;99716.13;;;25.14;42.86
75208;BME280;63795;55.684;37.864;2023-07-16T14:31:00;99717.88;;;25.06;42.33
75208;BME280;63795;55.684;37.864;2023-07-16T14:36:01;99719.94;;;24.80;42.78
75208;BME280;63795;55.684;37.864;2023-07-16T14:41:01;99730.22;;;24.61;43.33
75208;BME280;63795;55.684;37.864;2023-07-16T14:46:03;99720.84;;;24.31;44.35
75208;BME280;63795;55.684;37.864;2023-07-16T14:51:03;99729.06;;;24.03;46.06
75208;BME280;63795;55.684;37.864;2023-07-16T14:56:04;99735.94;;;23.91;45.76
75208;BME280;63795;55.684;37.864;2023-07-16T15:01:05;99729.59;;;23.73;45.88
75208;BME280;63795;55.684;37.864;2023-07-16T15:06:09;99734.19;;;23.50;46.87
75208;BME280;63795;55.684;37.864;2023-07-16T15:11:09;99727.88;;;23.37;47.13
75208;BME280;63795;55.684;37.864;2023-07-16T15:16:10;99732.72;;;23.31;46.84
75208;BME280;63795;55.684;37.864;2023-07-16T15:21:12;99733.13;;;23.24;47.14
75208;BME280;63795;55.684;37.864;2023-07-16T15:26:13;99731.22;;;23.21;47.31
75208;BME280;63795;55.684;37.864;2023-07-16T15:31:13;99732.53;;;23.20;47.82
75208;BME280;63795;55.684;37.864;2023-07-16T15:36:14;99739.13;;;23.20;47.69
75208;BME280;63795;55.684;37.864;2023-07-16T15:41:16;99744.41;;;23.22;47.85
75208;BME280;63795;55.684;37.864;2023-07-16T15:46:18;99735.91;;;23.18;47.42
75208;BME280;63795;55.684;37.864;2023-07-16T15:51:19;99746.69;;;23.18;47.47
75208;BME280;63795;55.684;37.864;2023-07-16T15:56:21;99742.47;;;23.19;48.04
75208;BME280;63795;55.684;37.864;2023-07-16T16:01:22;99729.03;;;23.16;47.75
75208;BME280;63795;55.684;37.864;2023-07-16T16:06:23;99732.94;;;23.13;48.36
75208;BME280;63795;55.684;37.864;2023-07-16T16:11:23;99742.28;;;23.08;47.70
75208;BME280;63795;55.684;37.864;2023-07-16T16:16:24;99738.47;;;23.02;48.64
75208;BME280;63795;55.684;37.864;2023-07-16T16:21:24;99731.38;;;22.88;48.34
75208;BME280;63795;55.684;37.864;2023-07-16T16:26:25;99728.41;;;22.73;48.86
75208;BME280;63795;55.684;37.864;2023-07-16T16:31:26;99742.56;;;22.71;49.10
75208;BME280;63795;55.684;37.864;2023-07-16T16:36:26;99745.75;;;22.73;48.70
75208;BME280;63795;55.684;37.864;2023-07-16T16:41:27;99736.78;;;22.71;48.94
75208;BME280;63795;55.684;37.864;2023-07-16T16:46:28;99752.34;;;22.74;48.71
75208;BME280;63795;55.684;37.864;2023-07-16T16:51:28;99758.31;;;22.70;49.27
75208;BME280;63795;55.684;37.864;2023-07-16T16:56:29;99758.94;;;22.74;49.46
75208;BME280;63795;55.684;37.864;2023-07-16T17:01:29;99761.69;;;22.69;48.97
75208;BME280;63795;55.684;37.864;2023-07-16T17:06:30;99765.16;;;22.58;49.14
75208;BME280;63795;55.684;37.864;2023-07-16T17:11:30;99759.38;;;22.49;49.30
75208;BME280;63795;55.684;37.864;2023-07-16T17:16:31;99749.53;;;22.32;49.59
75208;BME280;63795;55.684;37.864;2023-07-16T17:21:31;99763.06;;;22.26;49.80
75208;BME280;63795;55.684;37.864;2023-07-16T17:26:31;99766.78;;;22.18;50.12
75208;BME280;63795;55.684;37.864;2023-07-16T17:31:32;99770.19;;;22.07;50.47
75208;BME280;63795;55.684;37.864;2023-07-16T17:36:34;99768.94;;;21.99;50.72
75208;BME280;63795;55.684;37.864;2023-07-16T17:41:34;99764.16;;;21.87;51.21
75208;BME280;63795;55.684;37.864;2023-07-16T17:46:35;99772.50;;;21.85;51.54
75208;BME280;63795;55.684;37.864;2023-07-16T17:51:36;99764.81;;;21.73;51.92
75208;BME280;63795;55.684;37.864;2023-07-16T17:56:36;99780.25;;;21.61;52.68
75208;BME280;63795;55.684;37.864;2023-07-16T18:01:36;99774.81;;;21.54;52.55
75208;BME280;63795;55.684;37.864;2023-07-16T18:06:37;99774.81;;;21.45;53.47
75208;BME280;63795;55.684;37.864;2023-07-16T18:11:37;99780.75;;;21.41;53.58
75208;BME280;63795;55.684;37.864;2023-07-16T18:16:42;99778.22;;;21.25;54.27
75208;BME280;63795;55.684;37.864;2023-07-16T18:21:42;99781.28;;;21.22;53.83
75208;BME280;63795;55.684;37.864;2023-07-16T18:26:42;99776.78;;;21.11;54.66
75208;BME280;63795;55.684;37.864;2023-07-16T18:31:43;99789.59;;;21.01;54.74
75208;BME280;63795;55.684;37.864;2023-07-16T18:36:43;99766.34;;;20.87;55.16
75208;BME280;63795;55.684;37.864;2023-07-16T18:41:44;99784.75;;;20.89;55.49
75208;BME280;63795;55.684;37.864;2023-07-16T18:46:44;99799.97;;;20.90;55.06
75208;BME280;63795;55.684;37.864;2023-07-16T18:51:45;99792.13;;;20.81;55.56
75208;BME280;63795;55.684;37.864;2023-07-16T18:56:49;99780.88;;;20.74;56.07
75208;BME280;63795;55.684;37.864;2023-07-16T19:01:49;99790.50;;;20.80;55.10
75208;BME280;63795;55.684;37.864;2023-07-16T19:06:50;99794.19;;;20.72;55.94
75208;BME280;63795;55.684;37.864;2023-07-16T19:11:50;99791.59;;;20.65;56.53
75208;BME280;63795;55.684;37.864;2023-07-16T19:16:52;99789.19;;;20.63;56.40
75208;BME280;63795;55.684;37.864;2023-07-16T19:21:52;99798.16;;;20.56;56.65
75208;BME280;63795;55.684;37.864;2023-07-16T19:26:53;99792.69;;;20.49;57.14
75208;BME280;63795;55.684;37.864;2023-07-16T19:31:53;99791.06;;;20.39;57.49
75208;BME280;63795;55.684;37.864;2023-07-16T19:36:54;99791.03;;;20.30;57.64
75208;BME280;63795;55.684;37.864;2023-07-16T19:41:54;99783.66;;;20.20;58.26
75208;BME280;63795;55.684;37.864;2023-07-16T19:46:55;99773.78;;;20.08;58.54
75208;BME280;63795;55.684;37.864;2023-07-16T19:51:55;99781.19;;;20.09;58.57
75208;BME280;63795;55.684;37.864;2023-07-16T19:56:55;99778.91;;;20.04;59.05
75208;BME280;63795;55.684;37.864;2023-07-16T20:01:56;99780.66;;;20.02;58.76
75208;BME280;63795;55.684;37.864;2023-07-16T20:06:57;99783.34;;;19.96;59.64
75208;BME280;63795;55.684;37.864;2023-07-16T20:11:57;99777.41;;;19.91;59.31
75208;BME280;63795;55.684;37.864;2023-07-16T20:16:58;99778.97;;;19.83;59.84
75208;BME280;63795;55.684;37.864;2023-07-16T20:21:59;99785.53;;;19.83;60.18
75208;BME280;63795;55.684;37.864;2023-07-16T20:26:59;99779.13;;;19.79;59.04
75208;BME280;63795;55.684;37.864;2023-07-16T20:32:00;99785.78;;;19.76;60.05
75208;BME280;63795;55.684;37.864;2023-07-16T20:37:01;99794.72;;;19.69;60.55
75208;BME280;63795;55.684;37.864;2023-07-16T20:42:02;99796.78;;;19.69;59.97
75208;BME280;63795;55.684;37.864;2023-07-16T20:47:02;99784.63;;;19.65;60.74
75208;BME280;63795;55.684;37.864;2023-07-16T20:52:03;99782.63;;;19.52;61.39
75208;BME280;63795;55.684;37.864;2023-07-16T20:57:04;99787.03;;;19.44;61.78
75208;BME280;63795;55.684;37.864;2023-07-16T21:02:05;99779.97;;;19.36;60.97
75208;BME280;63795;55.684;37.864;2023-07-16T21:07:06;99791.47;;;19.36;61.87
75208;BME280;63795;55.684;37.864;2023-07-16T21:12:06;99775.38;;;19.26;62.13
75208;BME280;63795;55.684;37.864;2023-07-16T21:17:07;99780.81;;;19.24;62.87
75208;BME280;63795;55.684;37.864;2023-07-16T21:22:08;99777.06;;;19.15;62.84
75208;BME280;63795;55.684;37.864;2023-07-16T21:27:08;99784.75;;;19.18;62.16
75208;BME280;63795;55.684;37.864;2023-07-16T21:32:09;99781.56;;;19.16;62.78
75208;BME280;63795;55.684;37.864;2023-07-16T21:37:10;99780.22;;;19.08;63.02
75208;BME280;63795;55.684;37.864;2023-07-16T21:42:11;99785.16;;;19.07;63.33
75208;BME280;63795;55.684;37.864;2023-07-16T21:47:12;99770.13;;;19.03;63.65
75208;BME280;63795;55.684;37.864;2023-07-16T21:52:12;99768.16;;;19.00;63.12
75208;BME280;63795;55.684;37.864;2023-07-16T21:57:13;99784.63;;;19.00;63.71
75208;BME280;63795;55.684;37.864;2023-07-16T22:02:14;99785.66;;;18.93;64.03
75208;BME280;63795;55.684;37.864;2023-07-16T22:07:16;99781.25;;;18.80;64.34
75208;BME280;63795;55.684;37.864;2023-07-16T22:12:16;99782.63;;;18.75;63.93
75208;BME280;63795;55.684;37.864;2023-07-16T22:17:17;99778.41;;;18.67;65.16
75208;BME280;63795;55.684;37.864;2023-07-16T22:22:18;99777.03;;;18.59;65.23
75208;BME280;63795;55.684;37.864;2023-07-16T22:27:18;99783.59;;;18.59;65.17
75208;BME280;63795;55.684;37.864;2023-07-16T22:32:19;99788.66;;;18.55;65.32
75208;BME280;63795;55.684;37.864;2023-07-16T22:37:19;99776.25;;;18.46;65.54
75208;BME280;63795;55.684;37.864;2023-07-16T22:42:19;99778.41;;;18.42;66.15
75208;BME280;63795;55.684;37.864;2023-07-16T22:47:20;99776.63;;;18.35;65.16
75208;BME280;63795;55.684;37.864;2023-07-16T22:52:21;99782.78;;;18.34;66.67
75208;BME280;63795;55.684;37.864;2023-07-16T22:57:21;99774.78;;;18.29;66.88
75208;BME280;63795;55.684;37.864;2023-07-16T23:02:24;99782.38;;;18.23;66.78
75208;BME280;63795;55.684;37.864;2023-07-16T23:07:24;99782.03;;;18.21;67.01
75208;BME280;63795;55.684;37.864;2023-07-16T23:12:25;99784.31;;;18.13;67.34
75208;BME280;63795;55.684;37.864;2023-07-16T23:17:25;99783.19;;;18.11;66.09
75208;BME280;63795;55.684;37.864;2023-07-16T23:22:26;99786.94;;;18.08;66.83
75208;BME280;63795;55.684;37.864;2023-07-16T23:27:26;99777.78;;;18.00;67.42
75208;BME280;63795;55.684;37.864;2023-07-16T23:32:27;99793.97;;;18.07;67.56
75208;BME280;63795;55.684;37.864;2023-07-16T23:37:27;99790.41;;;18.03;67.57
75208;BME280;63795;55.684;37.864;2023-07-16T23:42:27;99793.41;;;17.99;67.91
75208;BME280;63795;55.684;37.864;2023-07-16T23:47:28;99783.97;;;17.99;67.56
75208;BME280;63795;55.684;37.864;2023-07-16T23:52:28;99803.72;;;17.97;67.61
75208;BME280;63795;55.684;37.864;2023-07-16T23:57:29;99789.63;;;17.90;68.06
